Austin, Texas
Traffic Map
Current Weather Conditions
Austin, Texas
Clear
Clear
67°
Feels Like: 67°
Wind Chill: 67° Ceiling: Unl
Heat Index: 67° Visibility: 10mi
Dew Point: 54° Wind: 8mph
Humidity: 63% Direction: 180° (S)
Pressure: 29.73in Gusts: 0mph
Raw Report DataKATT 250451Z AUTO 18007KT 150V210 10SM CLR 19/12 A2973 RMK AO2 SLP059 T01940122
Traffic Incident Summary
Active as of:
Severity:
Category:
InformationThere was an issue retrieving the traffic information for this location. Please try a different location or try again shortly.
Advertisements
Track Severe Weather on mobile